sensor_id;sensor_type;location;lat;lon;timestamp;temperature;humidity
66401;HTU21D;53211;45.040;38.788;2022-12-18T00:01:59;9.94;118.99
66401;HTU21D;53211;45.040;38.788;2022-12-18T00:04:26;9.85;118.99
66401;HTU21D;53211;45.040;38.788;2022-12-18T00:06:52;9.79;118.99
66401;HTU21D;53211;45.040;38.788;2022-12-18T00:09:19;9.72;118.99
66401;HTU21D;53211;45.040;38.788;2022-12-18T00:11:45;9.64;118.99
66401;HTU21D;53211;45.040;38.788;2022-12-18T00:14:12;9.56;118.99
66401;HTU21D;53211;45.040;38.788;2022-12-18T00:16:39;9.48;118.99
66401;HTU21D;53211;45.040;38.788;2022-12-18T00:19:06;9.41;118.99
66401;HTU21D;53211;45.040;38.788;2022-12-18T00:21:33;9.39;118.99
66401;HTU21D;53211;45.040;38.788;2022-12-18T00:23:59;9.33;118.99
66401;HTU21D;53211;45.040;38.788;2022-12-18T00:26:30;9.29;118.99
66401;HTU21D;53211;45.040;38.788;2022-12-18T00:29:13;9.20;118.99
66401;HTU21D;53211;45.040;38.788;2022-12-18T00:31:39;9.15;118.99
66401;HTU21D;53211;45.040;38.788;2022-12-18T00:34:05;9.08;118.99
66401;HTU21D;53211;45.040;38.788;2022-12-18T00:36:33;9.04;118.99
66401;HTU21D;53211;45.040;38.788;2022-12-18T00:39:01;8.97;118.99
66401;HTU21D;53211;45.040;38.788;2022-12-18T00:41:28;8.95;118.99
66401;HTU21D;53211;45.040;38.788;2022-12-18T00:44:14;8.89;118.99
66401;HTU21D;53211;45.040;38.788;2022-12-18T00:46:41;8.83;118.99
66401;HTU21D;53211;45.040;38.788;2022-12-18T00:49:07;8.76;118.99
66401;HTU21D;53211;45.040;38.788;2022-12-18T00:51:33;0.00;0.00
66401;HTU21D;53211;45.040;38.788;2022-12-18T00:53:59;8.62;118.99
66401;HTU21D;53211;45.040;38.788;2022-12-18T00:56:25;8.55;118.99
66401;HTU21D;53211;45.040;38.788;2022-12-18T00:58:52;8.45;118.99
66401;HTU21D;53211;45.040;38.788;2022-12-18T01:01:18;8.37;118.99
66401;HTU21D;53211;45.040;38.788;2022-12-18T01:03:44;8.30;118.99
66401;HTU21D;53211;45.040;38.788;2022-12-18T01:06:14;8.21;118.99
66401;HTU21D;53211;45.040;38.788;2022-12-18T01:08:40;8.15;118.99
66401;HTU21D;53211;45.040;38.788;2022-12-18T01:11:12;8.05;118.99
66401;HTU21D;53211;45.040;38.788;2022-12-18T01:13:38;7.94;118.99
66401;HTU21D;53211;45.040;38.788;2022-12-18T01:16:05;7.87;118.99
66401;HTU21D;53211;45.040;38.788;2022-12-18T01:18:34;7.79;118.99
66401;HTU21D;53211;45.040;38.788;2022-12-18T01:21:02;7.73;118.99
66401;HTU21D;53211;45.040;38.788;2022-12-18T01:23:30;7.65;118.99
66401;HTU21D;53211;45.040;38.788;2022-12-18T01:26:07;7.59;118.99
66401;HTU21D;53211;45.040;38.788;2022-12-18T01:28:35;7.52;118.99
66401;HTU21D;53211;45.040;38.788;2022-12-18T01:31:11;7.46;118.99
66401;HTU21D;53211;45.040;38.788;2022-12-18T01:33:37;7.44;118.99
66401;HTU21D;53211;45.040;38.788;2022-12-18T01:36:05;7.40;118.99
66401;HTU21D;53211;45.040;38.788;2022-12-18T01:38:31;62.96;0.00
66401;HTU21D;53211;45.040;38.788;2022-12-18T01:40:59;7.33;118.99
66401;HTU21D;53211;45.040;38.788;2022-12-18T01:43:42;7.28;118.99
66401;HTU21D;53211;45.040;38.788;2022-12-18T01:46:08;7.20;118.99
66401;HTU21D;53211;45.040;38.788;2022-12-18T01:48:34;7.15;118.99
66401;HTU21D;53211;45.040;38.788;2022-12-18T01:51:01;7.12;118.99
66401;HTU21D;53211;45.040;38.788;2022-12-18T01:53:27;7.08;118.99
66401;HTU21D;53211;45.040;38.788;2022-12-18T01:55:55;7.04;118.99
66401;HTU21D;53211;45.040;38.788;2022-12-18T01:58:32;6.99;118.99
66401;HTU21D;53211;45.040;38.788;2022-12-18T02:01:01;6.96;118.99
66401;HTU21D;53211;45.040;38.788;2022-12-18T02:03:27;6.91;118.99
66401;HTU21D;53211;45.040;38.788;2022-12-18T02:06:09;6.88;118.99
66401;HTU21D;53211;45.040;38.788;2022-12-18T02:09:02;6.85;118.99
66401;HTU21D;53211;45.040;38.788;2022-12-18T02:14:33;6.73;118.99
66401;HTU21D;53211;45.040;38.788;2022-12-18T02:17:06;6.69;118.99
66401;HTU21D;53211;45.040;38.788;2022-12-18T02:25:35;6.57;118.99
66401;HTU21D;53211;45.040;38.788;2022-12-18T02:28:09;6.55;118.99
66401;HTU21D;53211;45.040;38.788;2022-12-18T02:30:38;6.54;118.99
66401;HTU21D;53211;45.040;38.788;2022-12-18T02:33:06;6.54;118.99
66401;HTU21D;53211;45.040;38.788;2022-12-18T02:35:34;6.55;118.99
66401;HTU21D;53211;45.040;38.788;2022-12-18T02:38:03;6.56;118.99
66401;HTU21D;53211;45.040;38.788;2022-12-18T02:40:33;6.60;118.99
66401;HTU21D;53211;45.040;38.788;2022-12-18T02:43:08;6.63;118.99
66401;HTU21D;53211;45.040;38.788;2022-12-18T02:45:35;6.67;118.99
66401;HTU21D;53211;45.040;38.788;2022-12-18T02:48:02;6.69;118.99
66401;HTU21D;53211;45.040;38.788;2022-12-18T02:50:38;6.70;118.99
66401;HTU21D;53211;45.040;38.788;2022-12-18T02:53:36;6.69;118.99
66401;HTU21D;53211;45.040;38.788;2022-12-18T02:58:56;6.67;118.99
66401;HTU21D;53211;45.040;38.788;2022-12-18T03:01:50;6.66;118.99
66401;HTU21D;53211;45.040;38.788;2022-12-18T03:04:26;6.68;118.99
66401;HTU21D;53211;45.040;38.788;2022-12-18T03:06:57;6.68;118.99
66401;HTU21D;53211;45.040;38.788;2022-12-18T03:09:29;6.68;118.99
66401;HTU21D;53211;45.040;38.788;2022-12-18T03:12:04;6.67;118.99
66401;HTU21D;53211;45.040;38.788;2022-12-18T03:17:28;6.70;118.99
66401;HTU21D;53211;45.040;38.788;2022-12-18T03:19:59;6.71;118.99
66401;HTU21D;53211;45.040;38.788;2022-12-18T03:22:30;6.76;118.99
66401;HTU21D;53211;45.040;38.788;2022-12-18T03:25:00;6.80;118.99
66401;HTU21D;53211;45.040;38.788;2022-12-18T03:27:30;6.83;118.99
66401;HTU21D;53211;45.040;38.788;2022-12-18T03:30:07;6.85;118.99
66401;HTU21D;53211;45.040;38.788;2022-12-18T03:32:58;6.90;118.99
66401;HTU21D;53211;45.040;38.788;2022-12-18T03:35:34;6.94;118.99
66401;HTU21D;53211;45.040;38.788;2022-12-18T03:38:03;6.94;118.99
66401;HTU21D;53211;45.040;38.788;2022-12-18T03:44:10;7.19;118.99
66401;HTU21D;53211;45.040;38.788;2022-12-18T03:46:57;7.35;118.99
66401;HTU21D;53211;45.040;38.788;2022-12-18T03:55:17;7.76;118.99
66401;HTU21D;53211;45.040;38.788;2022-12-18T03:57:47;7.84;118.99
66401;HTU21D;53211;45.040;38.788;2022-12-18T04:00:16;7.89;118.99
66401;HTU21D;53211;45.040;38.788;2022-12-18T04:03:10;7.98;118.99
66401;HTU21D;53211;45.040;38.788;2022-12-18T04:05:44;8.03;118.99
66401;HTU21D;53211;45.040;38.788;2022-12-18T04:08:12;8.06;118.99
66401;HTU21D;53211;45.040;38.788;2022-12-18T04:10:42;8.11;118.99
66401;HTU21D;53211;45.040;38.788;2022-12-18T04:13:09;8.14;118.99
66401;HTU21D;53211;45.040;38.788;2022-12-18T04:15:36;8.15;118.99
66401;HTU21D;53211;45.040;38.788;2022-12-18T04:18:05;8.15;118.99
66401;HTU21D;53211;45.040;38.788;2022-12-18T04:20:38;8.11;118.99
66401;HTU21D;53211;45.040;38.788;2022-12-18T04:23:04;8.06;118.99
66401;HTU21D;53211;45.040;38.788;2022-12-18T04:25:31;8.09;118.99
66401;HTU21D;53211;45.040;38.788;2022-12-18T04:28:06;8.24;118.99
66401;HTU21D;53211;45.040;38.788;2022-12-18T04:30:34;8.39;118.99
66401;HTU21D;53211;45.040;38.788;2022-12-18T04:33:00;8.50;118.99
66401;HTU21D;53211;45.040;38.788;2022-12-18T04:35:28;8.61;118.99
66401;HTU21D;53211;45.040;38.788;2022-12-18T04:37:54;8.71;118.99
66401;HTU21D;53211;45.040;38.788;2022-12-18T04:40:20;8.79;118.99
66401;HTU21D;53211;45.040;38.788;2022-12-18T04:42:47;8.88;118.99
66401;HTU21D;53211;45.040;38.788;2022-12-18T04:45:13;9.00;118.99
66401;HTU21D;53211;45.040;38.788;2022-12-18T04:47:39;9.09;118.99
66401;HTU21D;53211;45.040;38.788;2022-12-18T04:50:05;9.15;118.99
66401;HTU21D;53211;45.040;38.788;2022-12-18T04:52:31;9.19;118.99
66401;HTU21D;53211;45.040;38.788;2022-12-18T04:54:57;9.21;118.99
66401;HTU21D;53211;45.040;38.788;2022-12-18T04:57:23;9.24;118.99
66401;HTU21D;53211;45.040;38.788;2022-12-18T04:59:49;9.24;118.99
66401;HTU21D;53211;45.040;38.788;2022-12-18T05:02:15;9.25;118.99
66401;HTU21D;53211;45.040;38.788;2022-12-18T05:04:41;9.29;118.99
66401;HTU21D;53211;45.040;38.788;2022-12-18T05:07:07;9.32;118.99
66401;HTU21D;53211;45.040;38.788;2022-12-18T05:09:32;9.35;118.99
66401;HTU21D;53211;45.040;38.788;2022-12-18T05:11:59;9.39;118.99
66401;HTU21D;53211;45.040;38.788;2022-12-18T05:14:24;9.46;118.99
66401;HTU21D;53211;45.040;38.788;2022-12-18T05:16:53;9.54;118.99
66401;HTU21D;53211;45.040;38.788;2022-12-18T05:19:19;9.62;118.99
66401;HTU21D;53211;45.040;38.788;2022-12-18T05:21:45;9.64;118.99
66401;HTU21D;53211;45.040;38.788;2022-12-18T05:24:11;9.68;118.99
66401;HTU21D;53211;45.040;38.788;2022-12-18T05:26:37;9.70;118.99
66401;HTU21D;53211;45.040;38.788;2022-12-18T05:29:03;9.79;118.99
66401;HTU21D;53211;45.040;38.788;2022-12-18T05:31:29;9.79;118.99
66401;HTU21D;53211;45.040;38.788;2022-12-18T05:33:55;9.83;118.99
66401;HTU21D;53211;45.040;38.788;2022-12-18T05:36:21;9.89;118.99
66401;HTU21D;53211;45.040;38.788;2022-12-18T05:38:47;10.03;118.99
66401;HTU21D;53211;45.040;38.788;2022-12-18T05:41:12;10.15;118.99
66401;HTU21D;53211;45.040;38.788;2022-12-18T05:43:39;10.30;118.99
66401;HTU21D;53211;45.040;38.788;2022-12-18T05:46:06;10.50;118.99
66401;HTU21D;53211;45.040;38.788;2022-12-18T05:48:33;10.67;118.99
66401;HTU21D;53211;45.040;38.788;2022-12-18T05:51:08;10.86;118.99
66401;HTU21D;53211;45.040;38.788;2022-12-18T05:53:35;11.03;118.99
66401;HTU21D;53211;45.040;38.788;2022-12-18T05:56:03;11.18;118.99
66401;HTU21D;53211;45.040;38.788;2022-12-18T05:58:30;11.32;118.99
66401;HTU21D;53211;45.040;38.788;2022-12-18T06:00:57;11.43;118.99
66401;HTU21D;53211;45.040;38.788;2022-12-18T06:03:23;11.56;118.99
66401;HTU21D;53211;45.040;38.788;2022-12-18T06:05:49;11.68;118.99
66401;HTU21D;53211;45.040;38.788;2022-12-18T06:08:15;11.79;118.99
66401;HTU21D;53211;45.040;38.788;2022-12-18T06:10:41;11.92;118.99
66401;HTU21D;53211;45.040;38.788;2022-12-18T06:13:08;12.03;118.99
66401;HTU21D;53211;45.040;38.788;2022-12-18T06:15:36;12.16;118.99
66401;HTU21D;53211;45.040;38.788;2022-12-18T06:18:02;12.25;118.99
66401;HTU21D;53211;45.040;38.788;2022-12-18T06:20:28;12.35;118.99
66401;HTU21D;53211;45.040;38.788;2022-12-18T06:22:54;12.46;118.99
66401;HTU21D;53211;45.040;38.788;2022-12-18T06:25:20;12.56;118.99
66401;HTU21D;53211;45.040;38.788;2022-12-18T06:27:47;12.65;118.99
66401;HTU21D;53211;45.040;38.788;2022-12-18T06:30:13;12.73;118.99
66401;HTU21D;53211;45.040;38.788;2022-12-18T06:32:39;12.81;118.99
66401;HTU21D;53211;45.040;38.788;2022-12-18T06:35:06;12.91;118.99
66401;HTU21D;53211;45.040;38.788;2022-12-18T06:37:35;12.99;118.99
66401;HTU21D;53211;45.040;38.788;2022-12-18T06:40:01;13.10;118.99
66401;HTU21D;53211;45.040;38.788;2022-12-18T06:42:28;13.17;118.99
66401;HTU21D;53211;45.040;38.788;2022-12-18T06:44:54;13.23;118.99
66401;HTU21D;53211;45.040;38.788;2022-12-18T06:47:20;13.26;118.99
66401;HTU21D;53211;45.040;38.788;2022-12-18T06:49:46;13.33;118.99
66401;HTU21D;53211;45.040;38.788;2022-12-18T06:52:11;13.36;118.99
66401;HTU21D;53211;45.040;38.788;2022-12-18T06:54:37;13.39;118.99
66401;HTU21D;53211;45.040;38.788;2022-12-18T06:57:03;13.45;118.99
66401;HTU21D;53211;45.040;38.788;2022-12-18T06:59:29;13.49;118.99
66401;HTU21D;53211;45.040;38.788;2022-12-18T07:01:55;13.60;118.99
66401;HTU21D;53211;45.040;38.788;2022-12-18T07:04:26;13.64;118.99
66401;HTU21D;53211;45.040;38.788;2022-12-18T07:06:52;13.71;118.99
66401;HTU21D;53211;45.040;38.788;2022-12-18T07:09:18;13.79;118.99
66401;HTU21D;53211;45.040;38.788;2022-12-18T07:11:44;13.85;118.99
66401;HTU21D;53211;45.040;38.788;2022-12-18T07:14:10;13.93;118.99
66401;HTU21D;53211;45.040;38.788;2022-12-18T07:16:36;13.97;118.99
66401;HTU21D;53211;45.040;38.788;2022-12-18T07:19:02;14.00;118.99
66401;HTU21D;53211;45.040;38.788;2022-12-18T07:21:28;13.98;118.99
66401;HTU21D;53211;45.040;38.788;2022-12-18T07:23:54;13.97;118.99
66401;HTU21D;53211;45.040;38.788;2022-12-18T07:26:21;14.01;118.99
66401;HTU21D;53211;45.040;38.788;2022-12-18T07:28:47;14.05;118.99
66401;HTU21D;53211;45.040;38.788;2022-12-18T07:31:19;14.11;118.99
66401;HTU21D;53211;45.040;38.788;2022-12-18T07:33:46;14.18;118.99
66401;HTU21D;53211;45.040;38.788;2022-12-18T07:36:13;14.26;118.99
66401;HTU21D;53211;45.040;38.788;2022-12-18T07:38:40;14.35;118.99
66401;HTU21D;53211;45.040;38.788;2022-12-18T07:41:13;14.47;118.99
66401;HTU21D;53211;45.040;38.788;2022-12-18T07:43:41;14.57;118.99
66401;HTU21D;53211;45.040;38.788;2022-12-18T07:46:08;14.69;118.99
66401;HTU21D;53211;45.040;38.788;2022-12-18T07:48:34;14.81;118.99
66401;HTU21D;53211;45.040;38.788;2022-12-18T07:51:02;14.96;118.99
66401;HTU21D;53211;45.040;38.788;2022-12-18T07:53:29;15.14;118.99
66401;HTU21D;53211;45.040;38.788;2022-12-18T07:55:59;15.37;118.99
66401;HTU21D;53211;45.040;38.788;2022-12-18T07:58:26;15.57;118.99
66401;HTU21D;53211;45.040;38.788;2022-12-18T08:00:52;15.78;118.99
66401;HTU21D;53211;45.040;38.788;2022-12-18T08:03:19;16.01;118.99
66401;HTU21D;53211;45.040;38.788;2022-12-18T08:05:45;16.19;118.99
66401;HTU21D;53211;45.040;38.788;2022-12-18T08:08:11;16.37;118.99
66401;HTU21D;53211;45.040;38.788;2022-12-18T08:10:38;16.55;118.99
66401;HTU21D;53211;45.040;38.788;2022-12-18T08:13:04;16.70;118.99
66401;HTU21D;53211;45.040;38.788;2022-12-18T08:15:30;16.88;118.99
66401;HTU21D;53211;45.040;38.788;2022-12-18T08:17:57;17.06;118.99
66401;HTU21D;53211;45.040;38.788;2022-12-18T08:20:23;17.24;118.99
66401;HTU21D;53211;45.040;38.788;2022-12-18T08:22:48;17.45;118.99
66401;HTU21D;53211;45.040;38.788;2022-12-18T08:25:14;17.70;118.99
66401;HTU21D;53211;45.040;38.788;2022-12-18T08:27:40;17.92;118.99
66401;HTU21D;53211;45.040;38.788;2022-12-18T08:30:07;18.06;118.99
66401;HTU21D;53211;45.040;38.788;2022-12-18T08:32:33;18.23;118.99
66401;HTU21D;53211;45.040;38.788;2022-12-18T08:34:59;18.37;118.99
66401;HTU21D;53211;45.040;38.788;2022-12-18T08:37:25;18.50;118.99
66401;HTU21D;53211;45.040;38.788;2022-12-18T08:39:51;18.65;118.99
66401;HTU21D;53211;45.040;38.788;2022-12-18T08:42:17;18.76;118.99
66401;HTU21D;53211;45.040;38.788;2022-12-18T08:45:02;18.88;118.99
66401;HTU21D;53211;45.040;38.788;2022-12-18T08:47:28;18.95;118.99
66401;HTU21D;53211;45.040;38.788;2022-12-18T08:49:54;19.03;118.99
66401;HTU21D;53211;45.040;38.788;2022-12-18T08:52:20;19.10;118.99
66401;HTU21D;53211;45.040;38.788;2022-12-18T08:54:48;19.18;118.99
66401;HTU21D;53211;45.040;38.788;2022-12-18T08:57:13;19.25;118.99
66401;HTU21D;53211;45.040;38.788;2022-12-18T08:59:39;19.31;118.99
66401;HTU21D;53211;45.040;38.788;2022-12-18T09:02:05;19.37;118.99
66401;HTU21D;53211;45.040;38.788;2022-12-18T09:04:31;19.39;118.99
66401;HTU21D;53211;45.040;38.788;2022-12-18T09:06:57;19.43;118.99
66401;HTU21D;53211;45.040;38.788;2022-12-18T09:09:23;19.48;118.99
66401;HTU21D;53211;45.040;38.788;2022-12-18T09:11:49;19.55;118.99
66401;HTU21D;53211;45.040;38.788;2022-12-18T09:14:15;19.59;118.99
66401;HTU21D;53211;45.040;38.788;2022-12-18T09:16:41;19.58;118.99
66401;HTU21D;53211;45.040;38.788;2022-12-18T09:19:08;19.56;118.99
66401;HTU21D;53211;45.040;38.788;2022-12-18T09:21:38;19.57;118.99
66401;HTU21D;53211;45.040;38.788;2022-12-18T09:24:05;19.60;118.99
66401;HTU21D;53211;45.040;38.788;2022-12-18T09:26:31;19.62;118.99
66401;HTU21D;53211;45.040;38.788;2022-12-18T09:28:57;19.66;118.99
66401;HTU21D;53211;45.040;38.788;2022-12-18T09:31:24;19.76;118.99
66401;HTU21D;53211;45.040;38.788;2022-12-18T09:33:50;19.69;118.99
66401;HTU21D;53211;45.040;38.788;2022-12-18T09:36:18;19.63;118.99
66401;HTU21D;53211;45.040;38.788;2022-12-18T09:38:44;19.65;118.99
66401;HTU21D;53211;45.040;38.788;2022-12-18T09:43:57;19.74;118.99
66401;HTU21D;53211;45.040;38.788;2022-12-18T09:46:38;19.77;118.99
66401;HTU21D;53211;45.040;38.788;2022-12-18T09:49:12;19.83;118.99
66401;HTU21D;53211;45.040;38.788;2022-12-18T09:51:57;19.85;118.99
66401;HTU21D;53211;45.040;38.788;2022-12-18T09:54:40;19.83;118.99
66401;HTU21D;53211;45.040;38.788;2022-12-18T09:57:19;19.79;118.99
66401;HTU21D;53211;45.040;38.788;2022-12-18T10:00:16;19.73;118.99
66401;HTU21D;53211;45.040;38.788;2022-12-18T10:02:47;19.68;118.99
66401;HTU21D;53211;45.040;38.788;2022-12-18T10:05:16;19.59;118.99
66401;HTU21D;53211;45.040;38.788;2022-12-18T10:08:02;19.51;118.99
66401;HTU21D;53211;45.040;38.788;2022-12-18T10:10:42;19.37;118.99
66401;HTU21D;53211;45.040;38.788;2022-12-18T10:13:12;19.25;118.99
66401;HTU21D;53211;45.040;38.788;2022-12-18T10:16:08;19.16;118.99
66401;HTU21D;53211;45.040;38.788;2022-12-18T10:21:23;19.02;118.99
66401;HTU21D;53211;45.040;38.788;2022-12-18T10:26:41;18.84;118.99
66401;HTU21D;53211;45.040;38.788;2022-12-18T10:29:16;18.64;116.07
66401;HTU21D;53211;45.040;38.788;2022-12-18T10:31:43;18.38;116.15
66401;HTU21D;53211;45.040;38.788;2022-12-18T10:34:12;18.15;116.54
66401;HTU21D;53211;45.040;38.788;2022-12-18T10:36:40;17.95;116.73
66401;HTU21D;53211;45.040;38.788;2022-12-18T10:39:32;17.74;116.23
66401;HTU21D;53211;45.040;38.788;2022-12-18T10:42:16;17.53;115.68
66401;HTU21D;53211;45.040;38.788;2022-12-18T10:44:42;17.36;115.33
66401;HTU21D;53211;45.040;38.788;2022-12-18T10:47:14;17.18;115.66
66401;HTU21D;53211;45.040;38.788;2022-12-18T10:49:52;17.02;116.19
66401;HTU21D;53211;45.040;38.788;2022-12-18T10:52:23;16.91;117.54
66401;HTU21D;53211;45.040;38.788;2022-12-18T10:54:55;16.79;118.32
66401;HTU21D;53211;45.040;38.788;2022-12-18T10:59:58;16.61;118.68
66401;HTU21D;53211;45.040;38.788;2022-12-18T11:02:35;16.52;118.44
66401;HTU21D;53211;45.040;38.788;2022-12-18T11:05:03;16.43;118.18
66401;HTU21D;53211;45.040;38.788;2022-12-18T11:07:49;16.32;118.13
66401;HTU21D;53211;45.040;38.788;2022-12-18T11:10:17;16.24;118.59
66401;HTU21D;53211;45.040;38.788;2022-12-18T11:12:44;16.15;118.21
66401;HTU21D;53211;45.040;38.788;2022-12-18T11:15:20;16.08;118.29
66401;HTU21D;53211;45.040;38.788;2022-12-18T11:17:48;16.00;118.35
66401;HTU21D;53211;45.040;38.788;2022-12-18T11:20:35;15.88;118.44
66401;HTU21D;53211;45.040;38.788;2022-12-18T11:23:04;15.81;118.32
66401;HTU21D;53211;45.040;38.788;2022-12-18T11:25:32;15.74;118.67
66401;HTU21D;53211;45.040;38.788;2022-12-18T11:28:01;15.67;118.95
66401;HTU21D;53211;45.040;38.788;2022-12-18T11:30:34;15.62;118.99
66401;HTU21D;53211;45.040;38.788;2022-12-18T11:33:10;15.56;118.99
66401;HTU21D;53211;45.040;38.788;2022-12-18T11:38:23;15.47;118.99
66401;HTU21D;53211;45.040;38.788;2022-12-18T11:46:19;15.49;118.99
66401;HTU21D;53211;45.040;38.788;2022-12-18T11:49:12;15.47;118.99
66401;HTU21D;53211;45.040;38.788;2022-12-18T11:52:00;15.45;118.99
66401;HTU21D;53211;45.040;38.788;2022-12-18T11:54:27;15.42;118.99
66401;HTU21D;53211;45.040;38.788;2022-12-18T11:57:08;15.30;118.99
66401;HTU21D;53211;45.040;38.788;2022-12-18T12:02:21;15.02;118.99
66401;HTU21D;53211;45.040;38.788;2022-12-18T12:08:01;14.79;118.99
66401;HTU21D;53211;45.040;38.788;2022-12-18T12:11:00;14.71;118.99
66401;HTU21D;53211;45.040;38.788;2022-12-18T12:16:22;14.67;118.99
66401;HTU21D;53211;45.040;38.788;2022-12-18T12:21:25;14.58;118.99
66401;HTU21D;53211;45.040;38.788;2022-12-18T12:30:20;14.47;118.99
66401;HTU21D;53211;45.040;38.788;2022-12-18T12:36:17;14.34;118.99
66401;HTU21D;53211;45.040;38.788;2022-12-18T12:38:51;14.24;118.99
66401;HTU21D;53211;45.040;38.788;2022-12-18T12:41:25;14.18;118.99
66401;HTU21D;53211;45.040;38.788;2022-12-18T12:44:39;14.10;118.99
66401;HTU21D;53211;45.040;38.788;2022-12-18T12:47:15;14.00;118.99
66401;HTU21D;53211;45.040;38.788;2022-12-18T12:49:42;13.93;118.99
66401;HTU21D;53211;45.040;38.788;2022-12-18T12:52:28;13.84;118.99
66401;HTU21D;53211;45.040;38.788;2022-12-18T12:54:59;13.75;118.99
66401;HTU21D;53211;45.040;38.788;2022-12-18T12:57:38;13.66;118.99
66401;HTU21D;53211;45.040;38.788;2022-12-18T13:00:13;13.56;118.99
66401;HTU21D;53211;45.040;38.788;2022-12-18T13:08:10;13.19;118.99
66401;HTU21D;53211;45.040;38.788;2022-12-18T13:10:41;13.06;118.99
66401;HTU21D;53211;45.040;38.788;2022-12-18T13:13:11;12.88;118.99
66401;HTU21D;53211;45.040;38.788;2022-12-18T13:18:28;12.51;118.99
66401;HTU21D;53211;45.040;38.788;2022-12-18T13:34:29;11.64;118.99
66401;HTU21D;53211;45.040;38.788;2022-12-18T13:39:57;11.51;118.99
66401;HTU21D;53211;45.040;38.788;2022-12-18T13:48:18;11.14;118.99
66401;HTU21D;53211;45.040;38.788;2022-12-18T13:50:59;11.01;118.99
66401;HTU21D;53211;45.040;38.788;2022-12-18T13:53:46;10.84;118.99
66401;HTU21D;53211;45.040;38.788;2022-12-18T13:56:17;10.64;118.99
66401;HTU21D;53211;45.040;38.788;2022-12-18T13:58:44;10.54;118.99
66401;HTU21D;53211;45.040;38.788;2022-12-18T14:01:23;10.53;118.99
66401;HTU21D;53211;45.040;38.788;2022-12-18T14:04:08;10.37;118.99
66401;HTU21D;53211;45.040;38.788;2022-12-18T14:06:34;10.27;118.99
66401;HTU21D;53211;45.040;38.788;2022-12-18T14:09:02;10.19;118.99
66401;HTU21D;53211;45.040;38.788;2022-12-18T14:11:29;10.11;118.99
66401;HTU21D;53211;45.040;38.788;2022-12-18T14:13:56;10.04;118.99
66401;HTU21D;53211;45.040;38.788;2022-12-18T14:16:22;9.94;118.99
66401;HTU21D;53211;45.040;38.788;2022-12-18T14:18:53;9.88;118.99
66401;HTU21D;53211;45.040;38.788;2022-12-18T14:21:26;9.84;118.99
66401;HTU21D;53211;45.040;38.788;2022-12-18T14:26:34;9.71;118.99
66401;HTU21D;53211;45.040;38.788;2022-12-18T14:29:17;9.65;118.99
66401;HTU21D;53211;45.040;38.788;2022-12-18T14:31:43;9.57;118.99
66401;HTU21D;53211;45.040;38.788;2022-12-18T14:34:16;9.55;118.99
66401;HTU21D;53211;45.040;38.788;2022-12-18T14:36:52;9.48;118.99
66401;HTU21D;53211;45.040;38.788;2022-12-18T14:39:18;9.42;118.99
66401;HTU21D;53211;45.040;38.788;2022-12-18T14:41:44;9.35;118.99
66401;HTU21D;53211;45.040;38.788;2022-12-18T14:44:12;9.33;118.99
66401;HTU21D;53211;45.040;38.788;2022-12-18T14:46:39;9.29;118.99
66401;HTU21D;53211;45.040;38.788;2022-12-18T14:49:24;9.19;118.99
66401;HTU21D;53211;45.040;38.788;2022-12-18T14:51:54;9.10;118.99
66401;HTU21D;53211;45.040;38.788;2022-12-18T14:54:22;9.04;118.99
66401;HTU21D;53211;45.040;38.788;2022-12-18T14:57:00;8.96;118.99
66401;HTU21D;53211;45.040;38.788;2022-12-18T14:59:27;8.92;118.99
66401;HTU21D;53211;45.040;38.788;2022-12-18T15:02:04;8.89;118.99
66401;HTU21D;53211;45.040;38.788;2022-12-18T15:04:37;8.88;118.99
66401;HTU21D;53211;45.040;38.788;2022-12-18T15:09:37;8.81;118.99
66401;HTU21D;53211;45.040;38.788;2022-12-18T15:12:04;8.78;118.99
66401;HTU21D;53211;45.040;38.788;2022-12-18T15:14:41;8.72;118.99
66401;HTU21D;53211;45.040;38.788;2022-12-18T15:17:18;8.66;118.99
66401;HTU21D;53211;45.040;38.788;2022-12-18T15:19:47;8.63;118.99
66401;HTU21D;53211;45.040;38.788;2022-12-18T15:22:33;8.56;118.99
66401;HTU21D;53211;45.040;38.788;2022-12-18T15:25:00;8.50;118.99
66401;HTU21D;53211;45.040;38.788;2022-12-18T15:27:35;8.44;118.99
66401;HTU21D;53211;45.040;38.788;2022-12-18T15:32:36;8.42;118.99
66401;HTU21D;53211;45.040;38.788;2022-12-18T15:35:22;8.42;118.99
66401;HTU21D;53211;45.040;38.788;2022-12-18T15:37:48;8.34;118.99
66401;HTU21D;53211;45.040;38.788;2022-12-18T15:40:20;8.31;118.99
66401;HTU21D;53211;45.040;38.788;2022-12-18T15:42:47;8.24;118.99
66401;HTU21D;53211;45.040;38.788;2022-12-18T15:45:32;8.19;118.99
66401;HTU21D;53211;45.040;38.788;2022-12-18T15:47:59;8.13;118.99
66401;HTU21D;53211;45.040;38.788;2022-12-18T15:50:25;8.07;118.99
66401;HTU21D;53211;45.040;38.788;2022-12-18T15:52:52;8.04;118.99
66401;HTU21D;53211;45.040;38.788;2022-12-18T15:55:22;7.96;118.99
66401;HTU21D;53211;45.040;38.788;2022-12-18T15:58:08;7.88;118.99
66401;HTU21D;53211;45.040;38.788;2022-12-18T16:00:36;7.85;118.99
66401;HTU21D;53211;45.040;38.788;2022-12-18T16:03:08;7.82;118.99
66401;HTU21D;53211;45.040;38.788;2022-12-18T16:05:35;7.75;118.99
66401;HTU21D;53211;45.040;38.788;2022-12-18T16:08:01;7.71;118.99
66401;HTU21D;53211;45.040;38.788;2022-12-18T16:10:27;7.69;118.99
66401;HTU21D;53211;45.040;38.788;2022-12-18T16:12:54;7.64;118.99
66401;HTU21D;53211;45.040;38.788;2022-12-18T16:15:21;7.64;118.99
66401;HTU21D;53211;45.040;38.788;2022-12-18T16:17:47;7.59;118.99
66401;HTU21D;53211;45.040;38.788;2022-12-18T16:20:15;7.57;118.99
66401;HTU21D;53211;45.040;38.788;2022-12-18T16:22:45;7.50;118.99
66401;HTU21D;53211;45.040;38.788;2022-12-18T16:25:18;7.49;118.99
66401;HTU21D;53211;45.040;38.788;2022-12-18T16:27:45;7.45;118.99
66401;HTU21D;53211;45.040;38.788;2022-12-18T16:30:22;7.43;118.99
66401;HTU21D;53211;45.040;38.788;2022-12-18T16:32:49;7.41;118.99
66401;HTU21D;53211;45.040;38.788;2022-12-18T16:35:16;7.40;118.99
66401;HTU21D;53211;45.040;38.788;2022-12-18T16:37:46;7.39;118.99
66401;HTU21D;53211;45.040;38.788;2022-12-18T16:40:13;7.38;118.99
66401;HTU21D;53211;45.040;38.788;2022-12-18T16:42:41;7.34;118.99
66401;HTU21D;53211;45.040;38.788;2022-12-18T16:45:09;7.34;118.99
66401;HTU21D;53211;45.040;38.788;2022-12-18T16:47:40;7.31;118.99
66401;HTU21D;53211;45.040;38.788;2022-12-18T16:50:06;7.26;118.99
66401;HTU21D;53211;45.040;38.788;2022-12-18T16:52:33;7.23;118.99
66401;HTU21D;53211;45.040;38.788;2022-12-18T16:54:59;7.19;118.99
66401;HTU21D;53211;45.040;38.788;2022-12-18T16:57:25;7.16;118.99